Time;durP1;ratioP1;P1;durP2;ratioP2;P2;SDS_P1;SDS_P2;PMS_P1;PMS_P2;Temp;Humidity;BMP_temperature;BMP_pressure;BME280_temperature;BME280_humidity;BME280_pressure;Samples;Min_cycle;Max_cycle;Signal;HPM_P1;HPM_P2
2022/09/07 00:00:43;;;;;;;4.60;2.90;;;;;;;7.46;64.50;100735.27;130513;1267;108694;-75
2022/09/07 00:03:48;;;;;;;6.10;2.70;;;;;;;7.39;64.55;100734.25;130560;1268;108707;-75
2022/09/07 00:06:54;;;;;;;6.20;3.30;;;;;;;7.31;64.54;100729.98;130365;1267;108878;-75
2022/09/07 00:10:00;;;;;;;5.30;2.90;;;;;;;7.27;64.75;100728.31;130591;1268;108726;-75
2022/09/07 00:13:06;;;;;;;5.50;3.00;;;;;;;7.25;64.80;100725.48;130609;1268;109386;-75
2022/09/07 00:16:15;;;;;;;5.30;3.20;;;;;;;7.20;64.69;100732.77;130400;1268;108834;-74
2022/09/07 00:19:21;;;;;;;5.10;2.60;;;;;;;7.14;64.82;100729.36;128918;1268;1790242;-76
2022/09/07 00:22:27;;;;;;;5.20;3.40;;;;;;;7.11;65.04;100723.60;130348;1268;108863;-76
2022/09/07 00:25:37;;;;;;;5.00;3.00;;;;;;;7.05;64.98;100722.24;130454;1267;108855;-76
2022/09/07 00:28:43;;;;;;;4.20;2.90;;;;;;;7.01;65.22;100725.58;130534;1268;108728;-75
2022/09/07 00:31:49;;;;;;;6.40;2.80;;;;;;;6.99;65.20;100722.20;130431;1267;108992;-75
2022/09/07 00:34:54;;;;;;;4.80;2.50;;;;;;;6.97;65.03;100721.43;130457;1266;108749;-75
2022/09/07 00:38:00;;;;;;;4.30;2.60;;;;;;;6.97;65.23;100720.06;130447;1268;109610;-76
2022/09/07 00:41:06;;;;;;;4.40;2.70;;;;;;;6.99;64.92;100724.86;130490;1268;109295;-75
2022/09/07 00:44:46;;;;;;;5.60;2.90;;;;;;;6.99;64.95;100720.92;130496;1268;109078;-75
2022/09/07 00:47:58;;;;;;;6.30;3.00;;;;;;;6.99;64.96;100724.67;130422;1267;108814;-76
2022/09/07 00:51:06;;;;;;;6.80;2.60;;;;;;;6.96;65.11;100727.59;130440;1268;108942;-76
2022/09/07 00:54:16;;;;;;;5.70;2.80;;;;;;;6.94;65.23;100727.55;130462;1268;107431;-76
2022/09/07 00:57:22;;;;;;;6.10;3.10;;;;;;;6.90;65.21;100723.98;130385;1267;108608;-76
2022/09/07 01:00:28;;;;;;;5.20;2.80;;;;;;;6.85;65.03;100730.66;130384;1267;108777;-76
2022/09/07 01:03:39;;;;;;;6.20;2.90;;;;;;;6.80;65.19;100727.35;130410;1267;108888;-76
2022/09/07 01:06:45;;;;;;;5.30;2.80;;;;;;;6.75;65.35;100730.04;130423;1267;108867;-75
2022/09/07 01:09:52;;;;;;;4.30;2.90;;;;;;;6.71;65.21;100737.41;130381;1268;108878;-76
2022/09/07 01:12:58;;;;;;;5.10;3.00;;;;;;;6.62;65.15;100739.14;130506;1268;107783;-75
2022/09/07 01:16:11;;;;;;;3.80;2.60;;;;;;;6.56;65.45;100739.63;130434;1268;108763;-75
2022/09/07 01:19:37;;;;;;;4.50;2.60;;;;;;;6.55;65.24;100738.61;130419;1268;108762;-75
2022/09/07 01:23:21;;;;;;;3.50;2.60;;;;;;;6.52;65.22;100736.91;130375;1268;108729;-75
2022/09/07 01:26:54;;;;;;;5.40;2.70;;;;;;;6.50;65.42;100734.72;130437;1267;108931;-75
2022/09/07 01:30:05;;;;;;;4.50;2.70;;;;;;;6.48;65.51;100734.13;130337;1267;108877;-75
2022/09/07 01:33:23;;;;;;;4.30;2.70;;;;;;;6.44;65.43;100730.38;130458;1267;108809;-76
2022/09/07 01:36:40;;;;;;;4.60;2.60;;;;;;;6.41;65.50;100725.86;130332;1268;108789;-76
2022/09/07 01:39:52;;;;;;;3.90;2.50;;;;;;;6.41;65.53;100720.75;130387;1268;108996;-76
2022/09/07 01:43:04;;;;;;;3.90;2.20;;;;;;;6.40;65.29;100719.56;130366;1268;108816;-75
2022/09/07 01:46:15;;;;;;;4.30;2.80;;;;;;;6.39;65.48;100722.65;130368;1268;108799;-76
2022/09/07 01:49:25;;;;;;;6.60;2.50;;;;;;;6.41;65.46;100719.02;130444;1268;108947;-76
2022/09/07 01:52:38;;;;;;;6.80;2.80;;;;;;;6.41;65.76;100713.35;130415;1268;108763;-74
2022/09/07 01:55:47;;;;;;;4.00;2.60;;;;;;;6.42;65.57;100712.23;130435;1268;108695;-74
2022/09/07 01:58:56;;;;;;;4.90;2.90;;;;;;;6.36;65.67;100713.87;130359;1268;108873;-76
2022/09/07 02:02:06;;;;;;;6.10;2.80;;;;;;;6.32;65.68;100711.35;130376;1268;108898;-77
2022/09/07 02:05:17;;;;;;;5.60;2.60;;;;;;;6.26;65.64;100709.10;130348;1268;108760;-75
2022/09/07 02:08:28;;;;;;;3.60;2.40;;;;;;;6.24;65.56;100707.89;130351;1268;108869;-77
2022/09/07 02:11:38;;;;;;;3.30;2.40;;;;;;;6.19;65.75;100707.19;130377;1268;108785;-77
2022/09/07 02:14:48;;;;;;;3.90;2.40;;;;;;;6.13;65.86;100709.21;130572;1267;108851;-75
2022/09/07 02:17:59;;;;;;;4.50;2.60;;;;;;;6.08;66.00;100709.92;130499;1267;108691;-77
2022/09/07 02:21:09;;;;;;;4.50;2.40;;;;;;;6.05;65.88;100708.57;130466;1267;108611;-78
2022/09/07 02:24:20;;;;;;;4.20;2.70;;;;;;;6.02;66.02;100704.92;130412;1268;107363;-76
2022/09/07 02:27:33;;;;;;;4.70;2.70;;;;;;;6.00;65.78;100708.26;130452;1267;108776;-76
2022/09/07 02:30:39;;;;;;;4.30;2.40;;;;;;;5.94;65.86;100702.09;130430;1267;108778;-76
2022/09/07 02:33:46;;;;;;;4.70;2.40;;;;;;;5.90;65.94;100706.77;130495;1267;108680;-75
2022/09/07 02:36:53;;;;;;;5.60;2.60;;;;;;;5.89;66.02;100701.73;130318;1268;108650;-77
2022/09/07 02:40:00;;;;;;;4.20;2.50;;;;;;;5.85;65.93;100698.88;130384;1268;108780;-75
2022/09/07 02:43:08;;;;;;;5.40;2.50;;;;;;;5.81;66.06;100706.22;130533;1267;108791;-82
2022/09/07 02:46:24;;;;;;;6.20;2.30;;;;;;;5.75;66.14;100701.17;130299;1268;108917;-79
2022/09/07 02:49:50;;;;;;;4.10;2.20;;;;;;;5.69;66.19;100702.15;130384;1267;108910;-81
2022/09/07 02:53:10;;;;;;;3.80;2.20;;;;;;;5.69;66.13;100696.84;130527;1265;108779;-81
2022/09/07 02:56:30;;;;;;;4.10;2.40;;;;;;;5.71;66.06;100695.46;130483;1267;109042;-82
2022/09/07 02:59:45;;;;;;;3.80;2.10;;;;;;;5.73;66.02;100690.06;130522;1268;107906;-82
2022/09/07 03:03:03;;;;;;;4.30;2.20;;;;;;;5.74;66.03;100692.97;130495;1267;107851;-82
2022/09/07 03:06:14;;;;;;;3.40;2.50;;;;;;;5.72;65.94;100694.30;130812;1267;108819;-81
2022/09/07 03:09:22;;;;;;;4.10;2.60;;;;;;;5.66;66.05;100698.47;130637;1268;108752;-81
2022/09/07 03:12:40;;;;;;;3.40;2.40;;;;;;;5.58;65.98;100696.90;130568;1267;108888;-81
2022/09/07 03:15:46;;;;;;;5.50;2.50;;;;;;;5.53;66.05;100688.48;130332;1267;109036;-81
2022/09/07 03:18:51;;;;;;;6.40;2.40;;;;;;;5.49;66.03;100687.45;130409;1268;108801;-81
2022/09/07 03:21:57;;;;;;;3.70;2.40;;;;;;;5.47;66.19;100689.05;130440;1268;108802;-82
2022/09/07 03:25:04;;;;;;;3.70;2.30;;;;;;;5.43;66.11;100687.05;130479;1268;108766;-82
2022/09/07 03:28:10;;;;;;;4.30;2.40;;;;;;;5.38;66.10;100690.02;130462;1268;108860;-81
2022/09/07 03:31:15;;;;;;;3.80;2.30;;;;;;;5.34;66.14;100688.59;130543;1267;109772;-82
2022/09/07 03:34:21;;;;;;;3.30;2.30;;;;;;;5.31;66.11;100690.38;130542;1268;108951;-81
2022/09/07 03:37:26;;;;;;;4.50;2.30;;;;;;;5.27;66.22;100688.34;130550;1268;109423;-81
2022/09/07 03:40:32;;;;;;;3.90;2.50;;;;;;;5.24;66.15;100689.13;130539;1268;108243;-81
2022/09/07 03:43:37;;;;;;;4.30;2.40;;;;;;;5.21;66.27;100687.59;130543;1267;109052;-80
2022/09/07 03:46:44;;;;;;;4.30;2.30;;;;;;;5.19;66.28;100686.27;130461;1267;108971;-81
2022/09/07 03:49:50;;;;;;;5.50;2.50;;;;;;;5.16;66.36;100684.55;130521;1268;108705;-81
2022/09/07 03:52:55;;;;;;;3.40;2.50;;;;;;;5.16;66.45;100688.26;130468;1267;108814;-82
2022/09/07 03:56:03;;;;;;;3.20;2.00;;;;;;;5.12;66.51;100685.33;130424;1268;109020;-81
2022/09/07 03:59:09;;;;;;;3.90;2.10;;;;;;;5.15;66.46;100685.52;130491;1268;108691;-80
2022/09/07 04:02:15;;;;;;;3.80;2.20;;;;;;;5.16;66.38;100689.70;130448;1267;109012;-80
2022/09/07 04:05:20;;;;;;;4.50;2.70;;;;;;;5.16;66.48;100687.20;130455;1267;108651;-81
2022/09/07 04:08:27;;;;;;;4.70;2.40;;;;;;;5.19;66.43;100685.75;130466;1268;109405;-83
2022/09/07 04:11:33;;;;;;;4.30;2.10;;;;;;;5.24;66.43;100691.41;130747;1267;109053;-84
2022/09/07 04:14:39;;;;;;;3.50;2.20;;;;;;;5.22;66.29;100695.02;130525;1267;108954;-83
2022/09/07 04:17:44;;;;;;;4.50;2.50;;;;;;;5.23;66.25;100696.57;130547;1268;108710;-83
2022/09/07 04:20:50;;;;;;;5.20;2.50;;;;;;;5.21;66.34;100698.30;130485;1267;107659;-83
2022/09/07 04:23:57;;;;;;;3.60;2.20;;;;;;;5.19;66.39;100698.25;130587;1267;108901;-82
2022/09/07 04:27:02;;;;;;;4.60;2.60;;;;;;;5.19;66.31;100700.91;130509;1267;108587;-82
2022/09/07 04:30:10;;;;;;;3.60;2.30;;;;;;;5.20;66.59;100700.66;130511;1267;109730;-82
2022/09/07 04:33:16;;;;;;;3.80;2.30;;;;;;;5.29;66.56;100694.91;130521;1267;108955;-82
2022/09/07 04:36:23;;;;;;;3.60;2.30;;;;;;;5.44;66.66;100693.72;130521;1268;108801;-81
2022/09/07 04:39:29;;;;;;;3.30;2.40;;;;;;;5.58;66.54;100695.32;130667;1267;108790;-82
2022/09/07 04:42:34;;;;;;;3.40;2.20;;;;;;;5.73;66.46;100695.98;130527;1267;108897;-82
2022/09/07 04:45:40;;;;;;;3.80;2.40;;;;;;;5.89;66.57;100694.68;130588;1267;108670;-83
2022/09/07 04:48:49;;;;;;;4.10;2.50;;;;;;;6.05;66.42;100692.16;130514;1267;108887;-80
2022/09/07 04:51:54;;;;;;;3.60;2.30;;;;;;;6.24;66.56;100695.69;130476;1267;108706;-73
2022/09/07 04:54:59;;;;;;;4.20;2.50;;;;;;;6.37;66.62;100686.04;130499;1267;108618;-77
2022/09/07 04:58:05;;;;;;;4.70;2.20;;;;;;;6.52;66.63;100684.92;130405;1267;107559;-71
2022/09/07 05:01:13;;;;;;;3.70;2.10;;;;;;;6.69;66.55;100676.76;130398;1268;108701;-76
2022/09/07 05:04:18;;;;;;;3.80;2.10;;;;;;;6.92;66.46;100681.29;130521;1268;108773;-72
2022/09/07 05:07:24;;;;;;;3.30;2.00;;;;;;;7.17;66.43;100676.52;130426;1267;108639;-74
2022/09/07 05:10:29;;;;;;;5.20;2.40;;;;;;;7.41;66.27;100674.34;130495;1267;109031;-73
2022/09/07 05:13:35;;;;;;;4.70;2.90;;;;;;;7.64;66.42;100673.36;130365;1267;108842;-75
2022/09/07 05:16:40;;;;;;;4.00;2.60;;;;;;;7.83;66.61;100665.96;130653;1266;108787;-76
2022/09/07 05:19:46;;;;;;;5.70;3.10;;;;;;;7.98;66.60;100664.44;130538;1267;108735;-74
2022/09/07 05:22:58;;;;;;;5.60;3.00;;;;;;;8.02;66.55;100664.77;130493;1268;108757;-76
2022/09/07 05:26:05;;;;;;;6.60;3.10;;;;;;;8.05;66.47;100658.68;130556;1267;109157;-74
2022/09/07 05:29:11;;;;;;;7.90;4.60;;;;;;;8.09;66.77;100656.25;130699;1265;108648;-77
2022/09/07 05:32:17;;;;;;;6.90;4.30;;;;;;;8.14;66.82;100654.89;130723;1266;107703;-77
2022/09/07 05:35:22;;;;;;;9.40;5.40;;;;;;;8.19;66.90;100653.81;130550;1266;108818;-77
2022/09/07 05:38:28;;;;;;;10.70;6.20;;;;;;;8.23;66.90;100653.29;130580;1267;108594;-77
2022/09/07 05:41:34;;;;;;;12.00;5.20;;;;;;;8.31;66.88;100645.39;130589;1268;108840;-77
2022/09/07 05:44:39;;;;;;;8.00;4.50;;;;;;;8.40;67.14;100640.35;130600;1268;108889;-76
2022/09/07 05:47:48;;;;;;;6.00;3.80;;;;;;;8.51;66.93;100645.88;130483;1268;108707;-74
2022/09/07 05:50:54;;;;;;;4.50;2.60;;;;;;;8.62;67.24;100647.02;130473;1268;108660;-74
2022/09/07 05:53:59;;;;;;;4.30;2.50;;;;;;;8.74;67.16;100646.40;130399;1267;108852;-75
2022/09/07 05:57:06;;;;;;;4.70;2.60;;;;;;;8.87;67.12;100646.14;130440;1266;108843;-74
2022/09/07 06:00:14;;;;;;;3.90;2.60;;;;;;;9.04;67.21;100643.11;130606;1265;109082;-75
2022/09/07 06:03:19;;;;;;;4.80;2.60;;;;;;;9.21;67.13;100639.95;130452;1268;108731;-74
2022/09/07 06:06:25;;;;;;;4.10;2.60;;;;;;;9.39;66.82;100642.45;130463;1265;108741;-74
2022/09/07 06:09:30;;;;;;;5.30;2.70;;;;;;;9.55;66.88;100647.09;130514;1265;108624;-75
2022/09/07 06:12:36;;;;;;;4.20;2.50;;;;;;;9.70;66.93;100645.77;130307;1265;108665;-75
2022/09/07 06:15:42;;;;;;;5.00;2.40;;;;;;;9.83;66.69;100653.66;130327;1268;108656;-74
2022/09/07 06:18:49;;;;;;;6.00;2.70;;;;;;;9.95;66.51;100654.71;130469;1267;108868;-75
2022/09/07 06:21:54;;;;;;;5.70;2.90;;;;;;;10.06;66.79;100643.77;130447;1267;108795;-74
2022/09/07 06:25:00;;;;;;;11.20;6.10;;;;;;;10.17;66.78;100631.07;130444;1267;108553;-75
2022/09/07 06:28:07;;;;;;;5.30;3.30;;;;;;;10.27;66.51;100632.96;130497;1266;108771;-75
2022/09/07 06:31:14;;;;;;;6.10;2.90;;;;;;;10.36;66.48;100647.45;130540;1267;108623;-75
2022/09/07 06:34:21;;;;;;;6.10;3.60;;;;;;;10.47;66.72;100657.12;130452;1268;108681;-74
2022/09/07 06:37:27;;;;;;;3.90;2.60;;;;;;;10.57;66.58;100668.06;130982;1268;108527;-74
2022/09/07 06:40:34;;;;;;;4.60;2.60;;;;;;;10.67;66.79;100673.21;130380;1267;109186;-76
2022/09/07 06:43:40;;;;;;;7.00;3.30;;;;;;;10.77;66.15;100660.38;130452;1267;108813;-75
2022/09/07 06:46:46;;;;;;;4.80;3.00;;;;;;;10.87;65.95;100654.84;130424;1267;108538;-75
2022/09/07 06:49:52;;;;;;;6.60;3.10;;;;;;;10.98;66.16;100649.50;130331;1268;109093;-74
2022/09/07 06:52:58;;;;;;;6.00;3.40;;;;;;;11.11;66.00;100651.08;130382;1266;108930;-75
2022/09/07 06:56:08;;;;;;;5.30;3.10;;;;;;;11.22;65.96;100651.65;130515;1268;108906;-74
2022/09/07 06:59:13;;;;;;;5.50;3.20;;;;;;;11.33;66.01;100660.52;130385;1268;108847;-75
2022/09/07 07:02:19;;;;;;;7.10;3.20;;;;;;;11.47;66.01;100666.92;130436;1268;108664;-76
2022/09/07 07:05:24;;;;;;;4.20;3.10;;;;;;;11.57;65.70;100667.17;130422;1268;108863;-74
2022/09/07 07:08:30;;;;;;;4.40;3.20;;;;;;;11.68;65.57;100662.20;130517;1267;108684;-75
2022/09/07 07:11:37;;;;;;;169.90;63.90;;;;;;;11.79;65.07;100664.11;130411;1268;108861;-77
2022/09/07 07:14:42;;;;;;;44.50;19.50;;;;;;;11.90;64.67;100664.64;130381;1267;108664;-75
2022/09/07 07:17:47;;;;;;;18.50;9.00;;;;;;;12.02;64.81;100656.00;130500;1268;108789;-75
2022/09/07 07:20:53;;;;;;;12.90;7.40;;;;;;;12.13;64.56;100654.54;130316;1268;108641;-75
2022/09/07 07:23:58;;;;;;;11.10;7.30;;;;;;;12.23;64.37;100652.02;130421;1268;108962;-75
2022/09/07 07:27:04;;;;;;;8.60;5.50;;;;;;;12.34;64.32;100650.16;130460;1267;108548;-74
2022/09/07 07:30:12;;;;;;;10.30;4.50;;;;;;;12.45;63.97;100654.61;130490;1268;108676;-75
2022/09/07 07:33:17;;;;;;;6.80;4.00;;;;;;;12.55;63.91;100649.77;130461;1267;108951;-73
2022/09/07 07:36:25;;;;;;;6.70;4.10;;;;;;;12.67;63.89;100648.20;130398;1268;108741;-73
2022/09/07 07:39:30;;;;;;;5.60;3.40;;;;;;;12.80;63.68;100649.44;130481;1267;108881;-73
2022/09/07 07:42:37;;;;;;;5.70;3.60;;;;;;;12.91;63.29;100655.25;130431;1267;108784;-73
2022/09/07 07:45:45;;;;;;;5.60;3.10;;;;;;;13.03;63.23;100653.61;130520;1268;108697;-73
2022/09/07 07:48:50;;;;;;;4.50;3.40;;;;;;;13.16;63.05;100653.85;130412;1268;107006;-74
2022/09/07 07:51:56;;;;;;;8.40;6.00;;;;;;;13.28;63.24;100650.61;130414;1268;108700;-73
2022/09/07 07:55:02;;;;;;;6.10;4.20;;;;;;;13.41;63.07;100642.26;130332;1267;108823;-74
2022/09/07 07:58:08;;;;;;;6.50;3.00;;;;;;;13.54;62.59;100639.77;130500;1267;108869;-74
2022/09/07 08:01:16;;;;;;;5.40;2.70;;;;;;;13.64;62.24;100637.27;130511;1266;108827;-73
2022/09/07 08:04:21;;;;;;;5.20;2.70;;;;;;;13.72;61.66;100633.22;130387;1267;108854;-73
2022/09/07 08:07:27;;;;;;;3.30;2.40;;;;;;;13.79;61.28;100627.81;130465;1268;108896;-74
2022/09/07 08:10:32;;;;;;;4.00;2.50;;;;;;;13.87;61.47;100628.15;130476;1268;107503;-74
2022/09/07 08:13:39;;;;;;;5.10;2.20;;;;;;;13.95;60.39;100624.11;130446;1267;108809;-73
2022/09/07 08:16:45;;;;;;;3.80;2.10;;;;;;;14.04;60.42;100620.02;130407;1267;108921;-74
2022/09/07 08:19:51;;;;;;;4.40;2.10;;;;;;;14.13;60.12;100616.98;130421;1268;108820;-73
2022/09/07 08:22:56;;;;;;;3.40;2.20;;;;;;;14.21;59.96;100615.20;130399;1268;109079;-73
2022/09/07 08:26:01;;;;;;;3.40;2.20;;;;;;;14.27;59.90;100606.11;130527;1267;108844;-74
2022/09/07 08:29:07;;;;;;;4.30;2.30;;;;;;;14.36;59.58;100603.04;130336;1268;108693;-74
2022/09/07 08:32:13;;;;;;;4.80;2.10;;;;;;;14.44;59.54;100600.19;130399;1268;110597;-74
2022/09/07 08:35:19;;;;;;;3.20;2.20;;;;;;;14.54;59.00;100596.02;130499;1267;108696;-74
2022/09/07 08:38:25;;;;;;;3.00;1.80;;;;;;;14.64;59.40;100599.08;130385;1266;108645;-74
2022/09/07 08:41:56;;;;;;;3.30;2.10;;;;;;;14.71;58.87;100599.70;130564;1268;108929;-74
2022/09/07 08:45:08;;;;;;;5.20;2.10;;;;;;;14.79;58.42;100605.09;130483;1267;107762;-73
2022/09/07 08:48:17;;;;;;;4.30;2.00;;;;;;;14.82;57.74;100612.36;130453;1268;108837;-73
2022/09/07 08:51:29;;;;;;;5.10;2.00;;;;;;;14.87;57.49;100614.70;130470;1266;106781;-74
2022/09/07 08:54:36;;;;;;;4.00;2.00;;;;;;;14.92;57.35;100614.02;130454;1268;108572;-74
2022/09/07 08:57:44;;;;;;;3.00;1.90;;;;;;;15.01;57.51;100607.63;130463;1267;108764;-74
2022/09/07 09:00:51;;;;;;;2.80;1.70;;;;;;;15.13;57.65;100604.27;130372;1268;108980;-74
2022/09/07 09:03:56;;;;;;;3.30;2.30;;;;;;;15.22;57.33;100598.63;130458;1266;108972;-74
2022/09/07 09:07:14;;;;;;;3.40;1.80;;;;;;;15.29;57.16;100593.14;130291;1268;108814;-74
2022/09/07 09:10:32;;;;;;;2.70;2.00;;;;;;;15.36;56.32;100594.04;130418;1268;108692;-74
2022/09/07 09:13:51;;;;;;;2.50;1.90;;;;;;;15.38;56.46;100582.50;130457;1268;107763;-74
2022/09/07 09:17:03;;;;;;;3.60;1.90;;;;;;;15.45;56.67;100583.45;130562;1267;108684;-75
2022/09/07 09:20:19;;;;;;;3.60;1.70;;;;;;;15.54;56.77;100576.09;130442;1268;108857;-75
2022/09/07 09:23:27;;;;;;;4.60;2.40;;;;;;;15.61;55.52;100576.92;130547;1267;109990;-74
2022/09/07 09:26:33;;;;;;;4.10;2.20;;;;;;;15.67;56.05;100571.66;130521;1267;108717;-74
2022/09/07 09:29:39;;;;;;;2.80;2.10;;;;;;;15.73;55.81;100566.98;130523;1268;108647;-75
2022/09/07 09:32:47;;;;;;;3.30;1.80;;;;;;;15.80;55.55;100564.96;130503;1267;109097;-74
2022/09/07 09:35:54;;;;;;;2.60;1.90;;;;;;;15.84;55.30;100568.72;130555;1267;108755;-75
2022/09/07 09:39:00;;;;;;;4.20;1.90;;;;;;;15.91;55.56;100560.23;130495;1268;108960;-75
2022/09/07 09:42:22;;;;;;;3.90;1.80;;;;;;;15.97;55.33;100556.48;130527;1268;108873;-75
2022/09/07 09:45:32;;;;;;;2.60;1.70;;;;;;;15.99;54.61;100560.45;130549;1266;108948;-74
2022/09/07 09:48:40;;;;;;;2.30;1.80;;;;;;;16.03;54.65;100559.98;130475;1268;108904;-73
2022/09/07 09:51:51;;;;;;;4.00;1.80;;;;;;;16.09;54.81;100554.86;130508;1268;108531;-75
2022/09/07 09:54:57;;;;;;;3.60;2.20;;;;;;;16.15;54.55;100556.48;130555;1267;108870;-74
2022/09/07 09:58:05;;;;;;;3.40;1.90;;;;;;;16.21;53.94;100551.70;130556;1268;108483;-74
2022/09/07 10:01:24;;;;;;;3.10;1.80;;;;;;;16.23;54.23;100541.84;130463;1267;108451;-74
2022/09/07 10:04:34;;;;;;;2.80;2.10;;;;;;;16.32;54.08;100545.46;130431;1267;107773;-73
2022/09/07 10:07:39;;;;;;;2.70;1.70;;;;;;;16.38;53.77;100535.27;130481;1266;108755;-74
2022/09/07 10:10:54;;;;;;;2.90;1.80;;;;;;;16.43;53.51;100536.95;130435;1266;109082;-74
2022/09/07 10:14:00;;;;;;;2.20;1.50;;;;;;;16.48;53.18;100533.11;130555;1267;108966;-74
2022/09/07 10:17:19;;;;;;;2.00;1.60;;;;;;;16.54;53.14;100532.81;130325;1267;108822;-74
2022/09/07 10:20:36;;;;;;;2.20;1.70;;;;;;;16.57;52.22;100534.59;130525;1267;106947;-75
2022/09/07 10:23:42;;;;;;;3.90;2.30;;;;;;;16.61;52.27;100528.60;130408;1267;108955;-74
2022/09/07 10:26:47;;;;;;;2.50;1.90;;;;;;;16.68;52.67;100519.38;130444;1267;108713;-74
2022/09/07 10:29:53;;;;;;;2.90;1.90;;;;;;;16.75;52.35;100515.55;130391;1267;108175;-74
2022/09/07 10:33:07;;;;;;;4.40;2.10;;;;;;;16.81;52.42;100511.16;130460;1267;108854;-76
2022/09/07 10:36:22;;;;;;;2.60;1.80;;;;;;;16.90;52.05;100513.38;130459;1267;108603;-75
2022/09/07 10:39:34;;;;;;;3.40;1.60;;;;;;;16.97;51.70;100512.17;130545;1267;108652;-75
2022/09/07 10:42:48;;;;;;;3.50;1.70;;;;;;;17.03;51.95;100507.98;130450;1268;108466;-75
2022/09/07 10:46:10;;;;;;;3.80;1.70;;;;;;;17.09;52.01;100511.91;130462;1267;108674;-75
2022/09/07 10:49:23;;;;;;;3.30;1.70;;;;;;;17.17;51.47;100511.88;130398;1267;107576;-75
2022/09/07 10:52:36;;;;;;;2.10;1.80;;;;;;;17.21;51.09;100510.76;130272;1267;108913;-75
2022/09/07 10:55:48;;;;;;;3.40;1.80;;;;;;;17.24;51.10;100501.09;130455;1267;108711;-75
2022/09/07 10:59:17;;;;;;;3.20;1.90;;;;;;;17.28;51.34;100500.96;130470;1267;108662;-74
2022/09/07 11:02:29;;;;;;;2.30;1.70;;;;;;;17.35;51.13;100508.13;130409;1267;108807;-75
2022/09/07 11:05:42;;;;;;;2.70;1.80;;;;;;;17.39;50.93;100511.69;130430;1267;108779;-75
2022/09/07 11:09:02;;;;;;;2.80;1.80;;;;;;;17.41;50.89;100506.91;130378;1267;108899;-75
2022/09/07 11:12:13;;;;;;;4.40;1.90;;;;;;;17.44;50.44;100508.65;130373;1267;107807;-75
2022/09/07 11:15:24;;;;;;;3.10;1.80;;;;;;;17.46;50.56;100501.19;130449;1267;108904;-75
2022/09/07 11:18:36;;;;;;;2.90;1.90;;;;;;;17.50;50.28;100498.37;130460;1267;108592;-76
2022/09/07 11:21:47;;;;;;;4.70;1.70;;;;;;;17.50;49.90;100500.04;130575;1268;108673;-74
2022/09/07 11:24:57;;;;;;;2.00;1.60;;;;;;;17.51;49.46;100494.14;130456;1268;108693;-75
2022/09/07 11:28:08;;;;;;;3.40;1.70;;;;;;;17.55;49.63;100487.46;130464;1267;108667;-76
2022/09/07 11:31:20;;;;;;;2.40;1.70;;;;;;;17.60;49.67;100475.13;130451;1267;107458;-75
2022/09/07 11:34:29;;;;;;;3.00;1.90;;;;;;;17.69;49.45;100474.25;130547;1267;108873;-75
2022/09/07 11:37:45;;;;;;;4.80;1.80;;;;;;;17.71;49.30;100470.55;130636;1268;108421;-75
2022/09/07 11:41:01;;;;;;;2.70;1.90;;;;;;;17.75;49.13;100476.09;130588;1268;108705;-75
2022/09/07 11:44:14;;;;;;;2.50;1.70;;;;;;;17.75;48.86;100469.70;130554;1268;108622;-75
2022/09/07 11:47:26;;;;;;;2.20;1.70;;;;;;;17.76;48.59;100467.63;130590;1268;108576;-75
2022/09/07 11:50:32;;;;;;;;;;;;;;;17.77;48.41;100461.91;130582;1266;108785;-75
2022/09/07 11:53:43;;;;;;;2.60;2.00;;;;;;;17.78;48.06;100457.80;130509;1268;108800;-75
2022/09/07 11:56:54;;;;;;;4.30;2.10;;;;;;;17.80;48.46;100460.31;130522;1268;108775;-75
2022/09/07 12:00:07;;;;;;;3.00;2.00;;;;;;;17.84;48.77;100454.55;130632;1268;108723;-75
2022/09/07 12:03:30;;;;;;;4.40;1.70;;;;;;;17.92;48.63;100448.80;130602;1267;108716;-76
2022/09/07 12:07:02;;;;;;;3.70;1.80;;;;;;;17.99;48.40;100446.33;130606;1267;108862;-76
2022/09/07 12:10:24;;;;;;;4.10;1.80;;;;;;;18.01;48.52;100449.13;130545;1268;107607;-75
2022/09/07 12:13:58;;;;;;;3.00;1.50;;;;;;;18.02;48.29;100446.68;130572;1268;107610;-75
2022/09/07 12:17:24;;;;;;;2.50;1.80;;;;;;;18.06;48.53;100440.05;130582;1267;108632;-75
2022/09/07 12:20:40;;;;;;;3.40;1.80;;;;;;;18.11;48.31;100440.09;129338;1268;1598718;-75
2022/09/07 12:23:48;;;;;;;2.60;1.90;;;;;;;18.14;47.56;100443.48;130274;1268;108817;-75
2022/09/07 12:27:00;;;;;;;3.50;1.80;;;;;;;18.13;47.80;100440.77;130348;1268;108734;-75
2022/09/07 12:30:52;;;;;;;2.70;2.00;;;;;;;18.15;47.81;100439.61;130467;1268;107348;-76
2022/09/07 12:34:30;;;;;;;2.80;2.00;;;;;;;18.28;48.10;100434.54;130455;1265;108991;-75
2022/09/07 12:37:44;;;;;;;2.80;2.00;;;;;;;18.34;47.75;100427.73;130412;1268;108807;-75
2022/09/07 12:41:00;;;;;;;3.40;2.10;;;;;;;18.32;47.75;100424.25;130406;1268;108771;-75
2022/09/07 12:44:14;;;;;;;4.90;2.60;;;;;;;18.35;47.68;100423.69;130512;1267;108527;-75
2022/09/07 12:47:30;;;;;;;3.90;2.30;;;;;;;18.37;47.51;100423.12;130416;1268;108847;-75
2022/09/07 12:50:55;;;;;;;3.50;2.10;;;;;;;18.41;47.84;100426.51;130466;1268;108800;-75
2022/09/07 12:54:09;;;;;;;6.50;2.20;;;;;;;18.47;47.23;100425.21;130377;1268;108520;-75
2022/09/07 12:57:25;;;;;;;3.30;2.10;;;;;;;18.47;47.11;100421.05;130462;1267;110274;-75
2022/09/07 13:00:48;;;;;;;2.70;2.00;;;;;;;18.48;47.06;100421.35;130389;1268;109854;-75
2022/09/07 13:04:17;;;;;;;2.70;2.20;;;;;;;18.51;47.29;100426.67;130481;1267;108142;-75
2022/09/07 13:07:48;;;;;;;2.60;2.00;;;;;;;18.51;46.89;100429.08;130529;1268;108744;-77
2022/09/07 13:10:54;;;;;;;2.80;2.20;;;;;;;18.45;46.99;100426.31;130501;1267;108189;-75
2022/09/07 13:14:02;;;;;;;3.40;2.70;;;;;;;18.36;46.73;100419.21;130408;1268;108582;-75
2022/09/07 13:17:41;;;;;;;5.20;2.40;;;;;;;18.31;46.46;100414.56;130479;1267;109055;-75
2022/09/07 13:21:07;;;;;;;4.80;2.40;;;;;;;18.30;46.67;100413.35;130497;1268;109488;-75
2022/09/07 13:24:51;;;;;;;4.00;2.20;;;;;;;18.37;46.62;100408.90;130487;1267;108648;-76
2022/09/07 13:27:59;;;;;;;5.10;2.40;;;;;;;18.43;46.41;100406.23;130408;1267;108629;-76
2022/09/07 13:31:16;;;;;;;3.70;2.20;;;;;;;18.47;46.31;100401.30;130432;1268;108731;-75
2022/09/07 13:34:47;;;;;;;3.60;2.30;;;;;;;18.42;46.70;100392.50;130447;1268;108723;-75
2022/09/07 13:37:56;;;;;;;3.20;2.30;;;;;;;18.34;46.73;100385.63;130439;1268;108701;-75
2022/09/07 13:41:12;;;;;;;5.60;2.70;;;;;;;18.28;46.64;100386.41;130546;1268;107539;-74
2022/09/07 13:44:22;;;;;;;4.40;2.60;;;;;;;18.24;46.54;100383.66;130390;1268;108005;-75
2022/09/07 13:47:38;;;;;;;5.40;2.60;;;;;;;18.23;46.59;100377.20;130470;1268;109374;-75
2022/09/07 13:50:56;;;;;;;4.30;2.70;;;;;;;18.26;46.69;100380.34;130414;1268;108908;-75
2022/09/07 13:54:10;;;;;;;4.10;2.20;;;;;;;18.33;46.88;100374.96;130466;1268;109164;-75
2022/09/07 13:57:24;;;;;;;5.40;2.60;;;;;;;18.42;46.26;100369.27;130440;1268;108975;-75
2022/09/07 14:00:30;;;;;;;3.70;2.70;;;;;;;18.54;46.44;100371.11;130486;1267;108670;-75
2022/09/07 14:03:45;;;;;;;3.30;2.50;;;;;;;18.65;46.24;100368.58;130511;1268;108763;-75
2022/09/07 14:06:51;;;;;;;4.60;2.60;;;;;;;18.78;46.12;100368.70;130530;1268;108747;-75
2022/09/07 14:10:18;;;;;;;4.00;2.50;;;;;;;18.92;46.39;100370.78;130527;1268;108701;-75
2022/09/07 14:13:23;;;;;;;2.90;2.30;;;;;;;19.06;46.37;100367.90;130429;1268;108897;-75
2022/09/07 14:16:29;;;;;;;7.60;3.00;;;;;;;19.16;46.22;100364.74;130458;1268;108974;-75
2022/09/07 14:19:38;;;;;;;3.60;2.30;;;;;;;19.27;46.28;100364.70;130428;1268;108764;-75
2022/09/07 14:22:45;;;;;;;4.60;2.30;;;;;;;19.35;45.91;100357.84;130375;1268;108890;-75
2022/09/07 14:26:03;;;;;;;4.20;2.50;;;;;;;19.44;45.78;100351.60;130477;1268;108922;-76
2022/09/07 14:29:24;;;;;;;3.50;2.30;;;;;;;19.53;45.71;100351.09;130569;1268;108835;-75